createdAt,value
2023-11-03T00:01:35.799Z,7.90
2023-11-03T00:04:10.057Z,7.80
2023-11-03T00:06:44.295Z,7.80
2023-11-03T00:09:16.318Z,7.80
2023-11-03T00:11:44.337Z,7.70
2023-11-03T00:14:12.499Z,7.80
2023-11-03T00:16:40.515Z,7.80
2023-11-03T00:19:09.028Z,7.80
2023-11-03T00:21:37.144Z,7.80
2023-11-03T00:24:09.658Z,7.70
2023-11-03T00:26:38.776Z,7.70
2023-11-03T00:29:08.834Z,7.70
2023-11-03T00:31:36.988Z,7.70
2023-11-03T00:34:06.598Z,7.70
2023-11-03T00:36:34.640Z,7.70
2023-11-03T00:39:06.170Z,7.70
2023-11-03T00:41:36.115Z,7.70
2023-11-03T00:44:04.118Z,7.60
2023-11-03T00:46:32.061Z,7.70
2023-11-03T00:49:00.152Z,7.70
2023-11-03T00:51:28.258Z,7.70
2023-11-03T00:53:56.266Z,7.60
2023-11-03T00:56:24.279Z,7.70
2023-11-03T00:58:53.743Z,7.70
2023-11-03T01:01:22.861Z,7.70
2023-11-03T01:03:51.393Z,7.60
2023-11-03T01:06:20.240Z,7.60
2023-11-03T01:08:48.156Z,7.60
2023-11-03T01:11:16.929Z,7.50
2023-11-03T01:13:44.991Z,7.60
2023-11-03T01:16:14.872Z,7.60
2023-11-03T01:18:44.051Z,7.60
2023-11-03T01:21:16.596Z,7.60
2023-11-03T01:23:48.394Z,7.50
2023-11-03T01:26:18.787Z,7.60
2023-11-03T01:28:47.594Z,7.60
2023-11-03T01:31:17.533Z,7.60
2023-11-03T01:33:46.092Z,7.60
2023-11-03T01:36:14.501Z,7.60
2023-11-03T01:38:43.037Z,7.60
2023-11-03T01:41:11.085Z,7.60
2023-11-03T01:43:40.822Z,7.60
2023-11-03T01:46:09.021Z,7.70
2023-11-03T01:48:38.670Z,7.70
2023-11-03T01:51:07.082Z,7.60
2023-11-03T01:53:35.889Z,7.70
2023-11-03T01:56:04.987Z,7.70
2023-11-03T01:58:33.453Z,7.70
2023-11-03T02:01:03.311Z,7.70
2023-11-03T02:03:32.271Z,7.70
2023-11-03T02:06:01.886Z,7.80
2023-11-03T02:08:30.778Z,7.70
2023-11-03T02:10:59.933Z,7.70
2023-11-03T02:13:31.893Z,7.70
2023-11-03T02:16:00.763Z,7.70
2023-11-03T02:18:31.285Z,7.60
2023-11-03T02:21:05.153Z,7.70
2023-11-03T02:23:37.158Z,7.70
2023-11-03T02:26:05.907Z,7.70
2023-11-03T02:28:34.582Z,7.70
2023-11-03T02:31:02.774Z,7.70
2023-11-03T02:33:31.729Z,7.70
2023-11-03T02:35:59.757Z,7.70
2023-11-03T02:38:27.923Z,7.70
2023-11-03T02:40:57.298Z,7.60
2023-11-03T02:43:25.355Z,7.60
2023-11-03T02:45:53.791Z,7.70
2023-11-03T02:48:22.015Z,7.70
2023-11-03T02:50:50.290Z,7.70
2023-11-03T02:53:19.506Z,7.70
2023-11-03T02:55:47.864Z,7.70
2023-11-03T02:58:17.277Z,7.70
2023-11-03T03:00:45.689Z,7.70
2023-11-03T03:03:13.910Z,7.70
2023-11-03T03:05:41.895Z,7.60
2023-11-03T03:08:09.863Z,7.70
2023-11-03T03:10:37.931Z,7.70
2023-11-03T03:13:06.302Z,7.70
2023-11-03T03:15:35.270Z,7.70
2023-11-03T03:18:03.959Z,7.80
2023-11-03T03:20:32.509Z,7.80
2023-11-03T03:23:00.848Z,7.70
2023-11-03T03:25:28.888Z,7.70
2023-11-03T03:27:56.940Z,7.70
2023-11-03T03:30:24.984Z,7.70
2023-11-03T03:32:54.802Z,7.70
2023-11-03T03:35:23.599Z,7.70
2023-11-03T03:37:51.609Z,7.70
2023-11-03T03:40:20.222Z,7.70
2023-11-03T03:42:48.261Z,7.60
2023-11-03T03:45:17.278Z,7.70
2023-11-03T03:47:45.952Z,7.70
2023-11-03T03:50:15.346Z,7.80
2023-11-03T03:52:43.359Z,7.70
2023-11-03T03:55:11.425Z,7.70
2023-11-03T03:57:39.958Z,7.80
2023-11-03T04:00:09.347Z,7.70
2023-11-03T04:02:37.385Z,7.60
2023-11-03T04:05:05.843Z,7.60
2023-11-03T04:07:35.268Z,7.60
2023-11-03T04:10:03.902Z,7.70
2023-11-03T04:12:31.866Z,7.70
2023-11-03T04:15:00.191Z,7.70
2023-11-03T04:17:29.005Z,7.70
2023-11-03T04:19:58.593Z,7.70
2023-11-03T04:22:26.568Z,7.70
2023-11-03T04:24:55.954Z,7.70
2023-11-03T04:27:23.995Z,7.70
2023-11-03T04:29:52.439Z,7.70
2023-11-03T04:32:20.386Z,7.70
2023-11-03T04:34:48.488Z,7.60
2023-11-03T04:37:17.394Z,7.60
2023-11-03T04:39:46.053Z,7.60
2023-11-03T04:42:15.466Z,7.60
2023-11-03T04:44:43.444Z,7.60
2023-11-03T04:47:11.451Z,7.50
2023-11-03T04:49:39.880Z,7.60
2023-11-03T04:52:09.559Z,7.60
2023-11-03T04:54:37.727Z,7.60
2023-11-03T04:57:08.322Z,7.60
2023-11-03T04:59:39.201Z,7.60
2023-11-03T05:02:07.472Z,7.60
2023-11-03T05:04:35.522Z,7.60
2023-11-03T05:07:29.036Z,7.60
2023-11-03T05:09:57.138Z,7.60
2023-11-03T05:12:25.764Z,7.60
2023-11-03T05:14:55.112Z,7.70
2023-11-03T05:17:23.144Z,7.70
2023-11-03T05:19:52.520Z,7.70
2023-11-03T05:22:21.529Z,7.70
2023-11-03T05:24:49.912Z,7.70
2023-11-03T05:27:18.077Z,7.70
2023-11-03T05:29:46.363Z,7.70
2023-11-03T05:32:16.715Z,7.70
2023-11-03T05:34:44.812Z,7.70
2023-11-03T05:37:15.561Z,7.70
2023-11-03T05:39:43.820Z,7.70
2023-11-03T05:42:11.893Z,7.70
2023-11-03T05:44:40.048Z,7.70
2023-11-03T05:47:08.291Z,7.70
2023-11-03T05:49:37.983Z,7.80
2023-11-03T05:52:06.284Z,7.70
2023-11-03T05:54:34.278Z,7.70
2023-11-03T05:57:02.690Z,7.70
2023-11-03T05:59:30.906Z,7.70
2023-11-03T06:01:58.986Z,7.80
2023-11-03T06:04:28.320Z,7.80
2023-11-03T06:06:58.180Z,7.80
2023-11-03T06:09:27.911Z,7.80
2023-11-03T06:11:56.165Z,7.70
2023-11-03T06:14:24.605Z,7.70
2023-11-03T06:16:53.100Z,7.70
2023-11-03T06:19:21.232Z,7.70
2023-11-03T06:21:49.462Z,7.70
2023-11-03T06:24:18.823Z,7.80
2023-11-03T06:26:47.593Z,7.80
2023-11-03T06:29:16.251Z,7.80
2023-11-03T06:31:44.485Z,7.80
2023-11-03T06:34:13.151Z,7.80
2023-11-03T06:36:47.493Z,7.80
2023-11-03T06:39:20.843Z,7.80
2023-11-03T06:41:49.066Z,7.90
2023-11-03T06:44:17.136Z,7.90
2023-11-03T06:46:45.723Z,7.90
2023-11-03T06:49:14.978Z,7.90
2023-11-03T06:51:45.013Z,7.90
2023-11-03T06:54:18.620Z,7.80
2023-11-03T06:57:14.225Z,7.80
2023-11-03T06:59:43.815Z,7.80
2023-11-03T07:02:12.257Z,7.80
2023-11-03T07:04:42.212Z,7.90
2023-11-03T07:07:10.613Z,7.90
2023-11-03T07:09:38.652Z,7.90
2023-11-03T07:12:08.153Z,7.90
2023-11-03T07:14:38.007Z,7.90
2023-11-03T07:17:08.332Z,7.90
2023-11-03T07:19:37.710Z,7.90
2023-11-03T07:22:10.921Z,7.90
2023-11-03T07:24:39.097Z,7.90
2023-11-03T07:27:07.413Z,7.90
2023-11-03T07:29:37.125Z,7.90
2023-11-03T07:32:08.675Z,7.90
2023-11-03T07:34:36.959Z,7.90
2023-11-03T07:37:07.595Z,8.00
2023-11-03T07:39:36.661Z,7.90
2023-11-03T07:42:09.817Z,7.90
2023-11-03T07:44:40.651Z,8.00
2023-11-03T07:47:11.074Z,8.00
2023-11-03T07:50:05.142Z,8.10
2023-11-03T07:52:34.546Z,8.10
2023-11-03T07:57:55.128Z,8.20
2023-11-03T08:00:25.886Z,8.10
2023-11-03T08:02:54.370Z,8.10
2023-11-03T08:05:25.485Z,8.10
2023-11-03T08:07:54.267Z,8.20
2023-11-03T08:10:22.837Z,8.20
2023-11-03T08:12:50.947Z,8.20
2023-11-03T08:15:19.179Z,8.20
2023-11-03T08:17:48.662Z,8.30
2023-11-03T08:20:17.568Z,8.30
2023-11-03T08:22:46.278Z,8.30
2023-11-03T08:25:14.493Z,8.30
2023-11-03T08:27:43.692Z,8.30
2023-11-03T08:30:12.514Z,8.40
2023-11-03T08:32:40.646Z,8.40
2023-11-03T08:35:11.375Z,8.30
2023-11-03T08:37:41.927Z,8.30
2023-11-03T08:40:10.762Z,8.30
2023-11-03T08:42:39.296Z,8.30
2023-11-03T08:45:09.532Z,8.30
2023-11-03T08:47:37.828Z,8.40
2023-11-03T08:50:06.956Z,8.40
2023-11-03T08:52:36.998Z,8.40
2023-11-03T08:55:07.874Z,8.40
2023-11-03T08:57:36.573Z,8.40
2023-11-03T09:00:11.005Z,8.50
2023-11-03T09:02:39.502Z,8.50
2023-11-03T09:05:10.550Z,8.50
2023-11-03T09:07:40.975Z,8.50
2023-11-03T09:10:11.498Z,8.50
2023-11-03T09:12:41.645Z,8.60
2023-11-03T09:15:11.791Z,8.60
2023-11-03T09:17:46.863Z,8.60
2023-11-03T09:20:19.385Z,8.60
2023-11-03T09:22:50.078Z,8.70
2023-11-03T09:25:18.709Z,8.70
2023-11-03T09:27:49.691Z,8.70
2023-11-03T09:30:17.971Z,8.70
2023-11-03T09:32:49.098Z,8.80
2023-11-03T09:35:20.018Z,8.80
2023-11-03T09:37:50.869Z,8.80
2023-11-03T09:40:21.883Z,8.80
2023-11-03T09:42:50.571Z,8.90
2023-11-03T09:45:24.597Z,8.90
2023-11-03T09:47:55.743Z,8.80
2023-11-03T09:50:25.887Z,8.80
2023-11-03T09:52:57.910Z,8.90
2023-11-03T09:55:26.376Z,8.90
2023-11-03T09:58:00.969Z,9.00
2023-11-03T10:00:32.275Z,9.10
2023-11-03T10:03:00.388Z,9.20
2023-11-03T10:05:33.300Z,9.30
2023-11-03T10:08:05.049Z,9.40
2023-11-03T10:10:35.869Z,9.40
2023-11-03T10:13:10.306Z,9.40
2023-11-03T10:15:39.766Z,9.40
2023-11-03T10:18:08.346Z,9.30
2023-11-03T10:20:37.592Z,9.40
2023-11-03T10:23:09.683Z,9.60
2023-11-03T10:25:38.007Z,9.90
2023-11-03T10:28:07.064Z,9.90
2023-11-03T10:30:37.556Z,9.90
2023-11-03T10:33:07.290Z,9.90
2023-11-03T10:35:36.153Z,9.90
2023-11-03T10:38:04.349Z,9.90
2023-11-03T10:40:33.826Z,9.80
2023-11-03T10:43:09.213Z,10.00
2023-11-03T10:45:40.575Z,10.00
2023-11-03T10:48:13.329Z,10.10
2023-11-03T10:50:47.922Z,10.10
2023-11-03T10:53:25.763Z,10.10
2023-11-03T10:56:21.522Z,10.00
2023-11-03T10:58:52.856Z,9.90
2023-11-03T11:01:26.996Z,9.90
2023-11-03T11:04:00.324Z,9.90
2023-11-03T11:06:31.665Z,9.80
2023-11-03T11:09:06.767Z,9.80
2023-11-03T11:11:38.144Z,9.80
2023-11-03T11:14:22.014Z,9.80
2023-11-03T11:16:54.644Z,9.80
2023-11-03T11:19:32.877Z,9.70
2023-11-03T11:22:04.530Z,9.60
2023-11-03T11:24:34.784Z,9.50
2023-11-03T11:27:20.243Z,9.50
2023-11-03T11:29:51.645Z,9.50
2023-11-03T11:32:21.806Z,9.40
2023-11-03T11:34:50.082Z,9.40
2023-11-03T11:37:27.340Z,9.50
2023-11-03T11:39:57.179Z,9.40
2023-11-03T11:42:30.772Z,9.50
2023-11-03T11:45:00.718Z,9.50
2023-11-03T11:47:30.513Z,9.60
2023-11-03T11:50:00.860Z,9.60
2023-11-03T11:52:30.033Z,9.50
2023-11-03T11:55:02.399Z,9.40
2023-11-03T11:57:35.080Z,9.30
2023-11-03T12:00:06.226Z,9.20
2023-11-03T12:02:38.749Z,9.10
2023-11-03T12:05:08.261Z,9.10
2023-11-03T12:07:36.793Z,9.10
2023-11-03T12:10:05.774Z,9.10
2023-11-03T12:12:35.928Z,9.00
2023-11-03T12:15:05.544Z,9.00
2023-11-03T12:17:34.289Z,8.90
2023-11-03T12:20:02.285Z,8.90
2023-11-03T12:22:32.910Z,9.00
2023-11-03T12:25:02.602Z,9.00
2023-11-03T12:27:30.703Z,9.00
2023-11-03T12:30:06.382Z,9.00
2023-11-03T12:32:36.333Z,9.00
2023-11-03T12:35:04.751Z,9.10
2023-11-03T12:37:33.079Z,9.10
2023-11-03T12:40:02.349Z,9.10
2023-11-03T12:42:30.421Z,9.10
2023-11-03T12:45:02.144Z,9.10
2023-11-03T12:47:43.994Z,8.90
2023-11-03T12:50:19.006Z,9.00
2023-11-03T12:52:50.157Z,9.00
2023-11-03T12:55:26.596Z,9.10
2023-11-03T12:57:56.613Z,8.90
2023-11-03T13:00:26.221Z,9.10
2023-11-03T13:02:57.089Z,9.10
2023-11-03T13:05:26.490Z,9.20
2023-11-03T13:07:56.552Z,9.20
2023-11-03T13:10:25.296Z,9.20
2023-11-03T13:12:53.680Z,9.20
2023-11-03T13:15:21.786Z,9.20
2023-11-03T13:17:50.392Z,9.10
2023-11-03T13:20:20.112Z,9.10
2023-11-03T13:22:51.092Z,9.10
2023-11-03T13:25:20.818Z,9.10
2023-11-03T13:27:49.102Z,9.10
2023-11-03T13:30:17.847Z,8.90
2023-11-03T13:32:51.004Z,8.90
2023-11-03T13:35:21.763Z,9.00
2023-11-03T13:37:50.512Z,9.00
2023-11-03T13:40:21.571Z,9.00
2023-11-03T13:42:52.243Z,8.90
2023-11-03T13:45:20.854Z,8.80
2023-11-03T13:47:49.775Z,8.80
2023-11-03T13:50:22.123Z,8.70
2023-11-03T13:52:53.173Z,8.60
2023-11-03T13:55:35.264Z,8.60
2023-11-03T13:58:07.096Z,8.50
2023-11-03T14:00:37.037Z,8.40
2023-11-03T14:03:07.218Z,8.40
2023-11-03T14:05:37.631Z,8.30
2023-11-03T14:08:09.569Z,8.30
2023-11-03T14:10:37.608Z,8.20
2023-11-03T14:13:05.680Z,8.10
2023-11-03T14:15:35.008Z,8.20
2023-11-03T14:18:04.059Z,8.20
2023-11-03T14:20:32.238Z,8.20
2023-11-03T14:23:02.835Z,8.20
2023-11-03T14:25:32.558Z,8.20
2023-11-03T14:28:01.140Z,8.10
2023-11-03T14:30:29.198Z,8.10
2023-11-03T14:32:57.421Z,8.10
2023-11-03T14:35:28.275Z,8.10
2023-11-03T14:37:56.597Z,8.10
2023-11-03T14:40:24.666Z,8.10
2023-11-03T14:42:54.113Z,8.10
2023-11-03T14:45:22.276Z,8.20
2023-11-03T14:47:50.550Z,8.10
2023-11-03T14:50:19.230Z,8.10
2023-11-03T14:52:48.350Z,8.10
2023-11-03T14:55:18.139Z,8.10
2023-11-03T14:57:46.274Z,8.10
2023-11-03T15:00:17.577Z,8.10
2023-11-03T15:02:49.149Z,8.10
2023-11-03T15:05:17.885Z,8.10
2023-11-03T15:07:46.337Z,8.10
2023-11-03T15:10:15.156Z,8.00
2023-11-03T15:12:45.182Z,8.00
2023-11-03T15:15:16.945Z,7.90
2023-11-03T15:17:45.839Z,7.90
2023-11-03T15:20:17.898Z,7.90
2023-11-03T15:22:46.828Z,7.90
2023-11-03T15:25:17.341Z,7.90
2023-11-03T15:27:46.232Z,7.90
2023-11-03T15:30:18.413Z,7.90
2023-11-03T15:32:46.568Z,7.90
2023-11-03T15:35:15.312Z,7.90
2023-11-03T15:37:44.657Z,7.90
2023-11-03T15:40:17.365Z,7.90
2023-11-03T15:42:45.438Z,7.90
2023-11-03T15:45:16.736Z,7.90
2023-11-03T15:47:47.636Z,7.80
2023-11-03T15:50:18.690Z,7.80
2023-11-03T15:52:48.749Z,7.80
2023-11-03T15:55:17.080Z,7.80
2023-11-03T15:57:47.766Z,7.80
2023-11-03T16:00:21.380Z,7.80
2023-11-03T16:02:49.668Z,7.80
2023-11-03T16:05:17.989Z,7.70
2023-11-03T16:07:46.962Z,7.70
2023-11-03T16:10:18.057Z,7.70
2023-11-03T16:12:47.830Z,7.70
2023-11-03T16:15:18.764Z,7.70
2023-11-03T16:17:47.295Z,7.70
2023-11-03T16:20:19.490Z,7.60
2023-11-03T16:22:48.344Z,7.60
2023-11-03T16:25:17.837Z,7.60
2023-11-03T16:27:48.696Z,7.60
2023-11-03T16:30:22.201Z,7.60
2023-11-03T16:32:52.833Z,7.60
2023-11-03T16:35:21.588Z,7.60
2023-11-03T16:37:50.243Z,7.50
2023-11-03T16:40:19.361Z,7.50
2023-11-03T16:42:48.066Z,7.50
2023-11-03T16:45:19.317Z,7.50
2023-11-03T16:48:20.541Z,7.50
2023-11-03T16:51:19.962Z,7.50
2023-11-03T16:53:48.340Z,7.50
2023-11-03T16:56:17.034Z,7.50
2023-11-03T16:59:00.504Z,7.50
2023-11-03T17:01:37.076Z,7.50
2023-11-03T17:04:33.486Z,7.50
2023-11-03T17:09:54.800Z,7.50
2023-11-03T17:12:23.290Z,7.50
2023-11-03T17:14:51.593Z,7.50
2023-11-03T17:17:21.551Z,7.50
2023-11-03T17:19:50.492Z,7.40
2023-11-03T17:22:19.400Z,7.40
2023-11-03T17:24:47.581Z,7.40
2023-11-03T17:27:15.673Z,7.40
2023-11-03T17:29:46.110Z,7.40
2023-11-03T17:32:19.368Z,7.40
2023-11-03T17:34:49.955Z,7.30
2023-11-03T17:37:19.699Z,7.20
2023-11-03T17:39:48.256Z,7.30
2023-11-03T17:42:17.828Z,7.20
2023-11-03T17:44:46.090Z,7.30
2023-11-03T17:47:16.494Z,7.20
2023-11-03T17:49:47.619Z,7.30
2023-11-03T17:52:17.711Z,7.20
2023-11-03T17:54:46.093Z,7.20
2023-11-03T17:57:14.560Z,7.20
2023-11-03T17:59:42.999Z,7.20
2023-11-03T18:02:11.815Z,7.10
2023-11-03T18:04:41.341Z,7.10
2023-11-03T18:07:15.312Z,7.10
2023-11-03T18:09:45.020Z,7.10
2023-11-03T18:15:13.315Z,7.10
2023-11-03T18:17:42.773Z,7.10
2023-11-03T18:20:14.099Z,7.10
2023-11-03T18:22:43.537Z,7.10
2023-11-03T18:25:13.398Z,7.10
2023-11-03T18:31:05.980Z,7.10
2023-11-03T18:34:03.857Z,7.10
2023-11-03T18:36:58.042Z,7.20
2023-11-03T18:39:26.068Z,7.20
2023-11-03T18:41:56.842Z,7.20
2023-11-03T18:44:25.441Z,7.20
2023-11-03T18:46:56.968Z,7.20
2023-11-03T18:51:57.010Z,7.30
2023-11-03T18:55:55.481Z,7.20
2023-11-03T18:58:22.355Z,7.20
2023-11-03T19:00:26.145Z,7.20
2023-11-03T19:04:26.883Z,7.30
2023-11-03T19:08:15.227Z,7.20
2023-11-03T19:10:43.628Z,7.20
2023-11-03T19:13:19.759Z,7.20
2023-11-03T19:15:48.133Z,7.20
2023-11-03T19:18:16.456Z,7.20
2023-11-03T19:20:45.537Z,7.10
2023-11-03T19:23:13.889Z,7.10
2023-11-03T19:25:45.138Z,7.10
2023-11-03T19:28:14.052Z,7.10
2023-11-03T19:30:44.452Z,7.20
2023-11-03T19:33:13.788Z,7.10
2023-11-03T19:35:50.244Z,7.10
2023-11-03T19:38:21.671Z,7.10
2023-11-03T19:40:50.313Z,7.00
2023-11-03T19:43:18.573Z,7.10
2023-11-03T19:45:50.786Z,7.10
2023-11-03T19:48:19.209Z,7.10
2023-11-03T19:50:47.859Z,7.10
2023-11-03T19:53:17.240Z,7.10
2023-11-03T19:55:48.650Z,7.10
2023-11-03T19:58:46.546Z,7.10
2023-11-03T20:01:21.909Z,7.10
2023-11-03T20:03:50.248Z,7.10
2023-11-03T20:06:19.989Z,7.10
2023-11-03T20:08:48.038Z,7.20
2023-11-03T20:11:18.786Z,7.20
2023-11-03T20:13:50.975Z,7.20
2023-11-03T20:16:22.026Z,7.20
2023-11-03T20:18:55.071Z,7.20
2023-11-03T20:21:25.041Z,7.20
2023-11-03T20:23:53.077Z,7.20
2023-11-03T20:26:23.090Z,7.20
2023-11-03T20:28:52.512Z,7.20
2023-11-03T20:31:20.531Z,7.20
2023-11-03T20:33:49.268Z,7.20
2023-11-03T20:36:20.470Z,7.20
2023-11-03T20:38:49.130Z,7.20
2023-11-03T20:41:19.730Z,7.20
2023-11-03T20:43:47.854Z,7.20
2023-11-03T20:46:42.404Z,7.20
2023-11-03T20:49:10.986Z,7.10
2023-11-03T20:51:41.484Z,7.10
2023-11-03T20:54:37.293Z,7.10
2023-11-03T20:57:32.362Z,7.10
2023-11-03T21:03:19.214Z,7.10
2023-11-03T21:05:48.069Z,7.10
2023-11-03T21:08:42.767Z,7.00
2023-11-03T21:11:35.793Z,7.00
2023-11-03T21:14:28.516Z,7.10
2023-11-03T21:16:57.775Z,7.00
2023-11-03T21:19:26.976Z,7.00
2023-11-03T21:21:55.109Z,7.00
2023-11-03T21:24:25.979Z,7.00
2023-11-03T21:26:54.053Z,7.00
2023-11-03T21:29:22.931Z,6.90
2023-11-03T21:31:51.829Z,7.00
2023-11-03T21:34:47.454Z,7.00
2023-11-03T21:37:15.956Z,7.00
2023-11-03T21:39:48.200Z,7.00
2023-11-03T21:42:16.819Z,7.00
2023-11-03T21:44:45.880Z,6.90
2023-11-03T21:47:14.152Z,7.00
2023-11-03T21:49:43.036Z,6.90
2023-11-03T21:52:11.665Z,6.90
2023-11-03T21:54:40.708Z,6.90
2023-11-03T21:57:11.290Z,6.90
2023-11-03T21:59:41.318Z,6.90
2023-11-03T22:02:13.117Z,7.00
2023-11-03T22:04:41.605Z,7.00
2023-11-03T22:07:11.675Z,6.90
2023-11-03T22:09:42.423Z,6.80
2023-11-03T22:12:12.814Z,6.90
2023-11-03T22:14:41.556Z,6.90
2023-11-03T22:17:10.452Z,6.90
2023-11-03T22:19:38.990Z,6.90
2023-11-03T22:22:11.027Z,6.90
2023-11-03T22:24:39.820Z,6.90
2023-11-03T22:27:09.462Z,6.90
2023-11-03T22:29:39.893Z,6.90
2023-11-03T22:32:14.978Z,6.90
2023-11-03T22:34:44.765Z,6.80
2023-11-03T22:37:14.864Z,6.90
2023-11-03T22:39:43.370Z,6.90
2023-11-03T22:42:12.593Z,6.90
2023-11-03T22:44:42.243Z,6.80
2023-11-03T22:47:10.594Z,6.90
2023-11-03T22:49:39.634Z,6.90
2023-11-03T22:52:08.133Z,6.80
2023-11-03T22:54:37.098Z,6.80
2023-11-03T22:57:07.757Z,6.80
2023-11-03T22:59:38.239Z,6.80
2023-11-03T23:02:09.335Z,6.70
2023-11-03T23:04:37.827Z,6.70
2023-11-03T23:07:31.937Z,6.70
2023-11-03T23:10:08.574Z,6.70
2023-11-03T23:12:38.317Z,6.70
2023-11-03T23:15:09.510Z,6.70
2023-11-03T23:17:40.878Z,6.70
2023-11-03T23:20:11.079Z,6.70
2023-11-03T23:22:39.308Z,6.70
2023-11-03T23:25:12.899Z,6.70
2023-11-03T23:27:42.372Z,6.70
2023-11-03T23:30:13.347Z,6.70
2023-11-03T23:32:43.494Z,6.80
2023-11-03T23:35:12.829Z,6.70
2023-11-03T23:37:41.454Z,6.80
2023-11-03T23:40:10.136Z,6.80
2023-11-03T23:42:38.484Z,6.80
2023-11-03T23:45:11.345Z,6.80
2023-11-03T23:47:39.502Z,6.80
2023-11-03T23:50:12.266Z,6.80
2023-11-03T23:52:41.544Z,6.80
2023-11-03T23:55:35.106Z,6.80
2023-11-03T23:58:27.688Z,6.80
